createdAt,value
2018-11-07T00:01:37.560Z,48.97
2018-11-07T00:03:40.745Z,52.90
2018-11-07T00:05:43.984Z,50.70
2018-11-07T00:07:47.333Z,53.47
2018-11-07T00:09:50.667Z,50.90
2018-11-07T00:11:54.151Z,45.57
2018-11-07T00:13:57.364Z,55.17
2018-11-07T00:16:00.746Z,55.83
2018-11-07T00:18:04.013Z,45.57
2018-11-07T00:20:08.516Z,56.00
2018-11-07T00:22:11.712Z,51.27
2018-11-07T00:24:14.988Z,46.50
2018-11-07T00:26:18.237Z,52.63
2018-11-07T00:28:21.644Z,49.60
2018-11-07T00:30:25.229Z,53.20
2018-11-07T00:32:28.446Z,51.40
2018-11-07T00:34:31.705Z,48.37
2018-11-07T00:36:35.042Z,45.87
2018-11-07T00:38:38.310Z,47.33
2018-11-07T00:40:41.549Z,54.63
2018-11-07T00:42:44.775Z,56.47
2018-11-07T00:44:48.061Z,50.90
2018-11-07T00:46:51.317Z,57.43
2018-11-07T00:48:54.748Z,47.67
2018-11-07T00:50:58.072Z,50.33
2018-11-07T00:53:01.298Z,60.27
2018-11-07T00:55:04.937Z,63.23
2018-11-07T00:57:08.944Z,46.87
2018-11-07T00:59:12.132Z,59.07
2018-11-07T01:01:15.720Z,50.43
2018-11-07T01:03:18.892Z,55.33
2018-11-07T01:05:22.580Z,48.43
2018-11-07T01:07:25.776Z,52.80
2018-11-07T01:09:29.024Z,50.00
2018-11-07T01:11:33.084Z,53.07
2018-11-07T01:13:36.728Z,55.30
2018-11-07T01:15:39.946Z,50.37
2018-11-07T01:17:43.496Z,48.43
2018-11-07T01:19:46.800Z,61.53
2018-11-07T01:21:50.347Z,51.70
2018-11-07T01:23:53.762Z,51.80
2018-11-07T01:25:56.989Z,51.50
2018-11-07T01:28:00.234Z,56.07
2018-11-07T01:30:03.981Z,51.43
2018-11-07T01:32:07.379Z,50.17
2018-11-07T01:34:10.781Z,51.67
2018-11-07T01:36:14.221Z,54.80
2018-11-07T01:38:17.489Z,52.33
2018-11-07T01:40:28.347Z,48.67
2018-11-07T01:42:31.520Z,50.30
2018-11-07T01:44:35.135Z,51.90
2018-11-07T01:46:38.691Z,50.50
2018-11-07T01:48:41.852Z,54.60
2018-11-07T01:50:45.168Z,52.57
2018-11-07T01:52:48.734Z,58.83
2018-11-07T01:54:51.961Z,52.70
2018-11-07T01:56:55.220Z,61.43
2018-11-07T01:58:58.442Z,63.23
2018-11-07T02:01:01.722Z,50.20
2018-11-07T02:03:05.287Z,54.67
2018-11-07T02:05:08.761Z,48.57
2018-11-07T02:07:12.084Z,59.47
2018-11-07T02:09:15.357Z,55.20
2018-11-07T02:11:18.952Z,72.90
2018-11-07T02:13:22.204Z,52.37
2018-11-07T02:15:25.644Z,59.43
2018-11-07T02:17:29.250Z,57.40
2018-11-07T02:19:32.597Z,55.67
2018-11-07T02:21:35.831Z,50.60
2018-11-07T02:23:39.089Z,58.73
2018-11-07T02:25:42.368Z,55.93
2018-11-07T02:27:45.744Z,63.13
2018-11-07T02:29:48.995Z,53.67
2018-11-07T02:31:52.236Z,48.07
2018-11-07T02:33:55.471Z,56.17
2018-11-07T02:35:59.020Z,53.13
2018-11-07T02:38:02.404Z,53.30
2018-11-07T02:40:06.159Z,50.57
2018-11-07T02:42:09.381Z,52.57
2018-11-07T02:44:13.607Z,55.63
2018-11-07T02:46:16.910Z,53.17
2018-11-07T02:48:20.625Z,56.40
2018-11-07T02:50:23.890Z,49.93
2018-11-07T02:52:27.104Z,54.00
2018-11-07T02:54:30.527Z,54.47
2018-11-07T02:56:33.738Z,59.00
2018-11-07T02:58:37.065Z,62.73
2018-11-07T03:00:40.299Z,49.57
2018-11-07T03:02:43.496Z,57.77
2018-11-07T03:04:46.696Z,56.70
2018-11-07T03:06:50.107Z,61.40
2018-11-07T03:08:53.392Z,58.33
2018-11-07T03:10:56.605Z,55.47
2018-11-07T03:12:59.800Z,51.10
2018-11-07T03:15:03.080Z,69.77
2018-11-07T03:17:06.801Z,58.73
2018-11-07T03:19:10.056Z,58.90
2018-11-07T03:21:13.665Z,60.27
2018-11-07T03:23:16.985Z,48.03
2018-11-07T03:25:20.241Z,54.67
2018-11-07T03:27:23.444Z,54.90
2018-11-07T03:29:27.018Z,54.20
2018-11-07T03:31:30.304Z,57.23
2018-11-07T03:33:33.702Z,54.70
2018-11-07T03:35:36.915Z,53.77
2018-11-07T03:37:40.280Z,56.67
2018-11-07T03:39:43.759Z,61.90
2018-11-07T03:41:47.098Z,61.37
2018-11-07T03:43:50.460Z,51.70
2018-11-07T03:45:58.240Z,53.77
2018-11-07T03:48:01.496Z,47.50
2018-11-07T03:50:05.496Z,50.73
2018-11-07T03:52:08.728Z,43.13
2018-11-07T03:54:12.457Z,53.40
2018-11-07T03:56:15.696Z,52.60
2018-11-07T03:58:18.908Z,53.23
2018-11-07T04:00:22.163Z,54.37
2018-11-07T04:02:25.404Z,46.87
2018-11-07T04:04:28.700Z,52.07
2018-11-07T04:06:32.004Z,49.80
2018-11-07T04:08:35.217Z,47.97
2018-11-07T04:10:38.480Z,49.30
2018-11-07T04:12:41.756Z,50.53
2018-11-07T04:14:44.960Z,50.47
2018-11-07T04:16:48.677Z,51.70
2018-11-07T04:18:52.277Z,67.27
2018-11-07T04:20:55.712Z,52.37
2018-11-07T04:22:59.240Z,55.17
2018-11-07T04:25:02.613Z,59.80
2018-11-07T04:27:06.108Z,80.87
2018-11-07T04:29:09.358Z,71.83
2018-11-07T04:31:12.938Z,54.30
2018-11-07T04:33:16.180Z,56.27
2018-11-07T04:35:19.389Z,53.17
2018-11-07T04:37:22.613Z,51.77
2018-11-07T04:39:25.835Z,53.13
2018-11-07T04:41:29.062Z,53.20
2018-11-07T04:43:32.336Z,52.80
2018-11-07T04:45:36.217Z,61.00
2018-11-07T04:47:39.742Z,49.60
2018-11-07T04:49:43.010Z,56.60
2018-11-07T04:51:46.177Z,49.00
2018-11-07T04:53:49.540Z,58.03
2018-11-07T04:55:52.728Z,55.93
2018-11-07T04:57:55.980Z,53.87
2018-11-07T04:59:59.321Z,47.33
2018-11-07T05:02:03.012Z,44.70
2018-11-07T05:04:06.373Z,44.60
2018-11-07T05:06:09.912Z,60.73
2018-11-07T05:08:13.139Z,51.57
2018-11-07T05:10:16.444Z,51.67
2018-11-07T05:12:19.731Z,51.80
2018-11-07T05:14:23.172Z,55.77
2018-11-07T05:16:26.636Z,51.70
2018-11-07T05:18:29.832Z,54.40
2018-11-07T05:20:33.026Z,57.53
2018-11-07T05:22:36.709Z,51.20
2018-11-07T05:24:39.914Z,52.03
2018-11-07T05:26:43.393Z,56.23
2018-11-07T05:28:46.652Z,60.03
2018-11-07T05:30:49.903Z,68.80
2018-11-07T05:32:53.193Z,59.77
2018-11-07T05:34:56.393Z,57.67
2018-11-07T05:36:59.943Z,62.23
2018-11-07T05:39:04.210Z,71.13
2018-11-07T05:41:07.506Z,55.23
2018-11-07T05:43:10.907Z,70.53
2018-11-07T05:45:14.133Z,65.37
2018-11-07T05:47:17.690Z,58.37
2018-11-07T05:49:21.157Z,60.20
2018-11-07T05:51:24.354Z,56.00
2018-11-07T05:53:27.523Z,59.30
2018-11-07T05:55:30.822Z,57.23
2018-11-07T05:57:34.135Z,53.90
2018-11-07T05:59:37.417Z,63.67
2018-11-07T06:01:40.746Z,85.60
2018-11-07T06:03:44.036Z,66.03
2018-11-07T06:05:47.264Z,57.77
2018-11-07T06:07:50.478Z,57.87
2018-11-07T06:09:53.767Z,59.63
2018-11-07T06:11:56.996Z,50.40
2018-11-07T06:14:00.365Z,53.30
2018-11-07T06:16:03.985Z,59.13
2018-11-07T06:18:07.412Z,62.33
2018-11-07T06:20:11.563Z,62.33
2018-11-07T06:22:14.856Z,68.10
2018-11-07T06:24:18.261Z,50.73
2018-11-07T06:26:21.978Z,70.47
2018-11-07T06:28:25.291Z,71.83
2018-11-07T06:30:28.984Z,59.13
2018-11-07T06:32:32.547Z,43.70
2018-11-07T06:34:35.781Z,61.50
2018-11-07T06:36:39.263Z,54.00
2018-11-07T06:38:42.600Z,45.90
2018-11-07T06:40:45.896Z,55.70
2018-11-07T06:42:49.130Z,50.30
2018-11-07T06:44:52.748Z,56.63
2018-11-07T06:46:56.007Z,52.23
2018-11-07T06:48:59.942Z,57.87
2018-11-07T06:51:03.129Z,53.67
2018-11-07T06:53:06.822Z,50.73
2018-11-07T06:55:11.143Z,47.67
2018-11-07T06:57:14.538Z,43.20
2018-11-07T06:59:17.778Z,42.10
2018-11-07T07:01:21.093Z,48.30
2018-11-07T07:03:24.456Z,52.33
2018-11-07T07:05:27.853Z,57.20
2018-11-07T07:07:33.135Z,45.77
2018-11-07T07:09:36.473Z,51.40
2018-11-07T07:11:40.161Z,42.43
2018-11-07T07:13:43.784Z,46.90
2018-11-07T07:15:47.268Z,41.33
2018-11-07T07:17:50.589Z,50.83
2018-11-07T07:19:53.992Z,55.17
2018-11-07T07:21:57.297Z,50.73
2018-11-07T07:24:00.542Z,49.83
2018-11-07T07:26:04.204Z,41.50
2018-11-07T07:28:07.820Z,48.50
2018-11-07T07:30:13.032Z,42.00
2018-11-07T07:32:16.439Z,48.20
2018-11-07T07:34:19.653Z,56.07
2018-11-07T07:36:22.916Z,52.43
2018-11-07T07:38:26.744Z,52.27
2018-11-07T07:40:30.012Z,42.10
2018-11-07T07:42:33.218Z,41.80
2018-11-07T07:44:36.560Z,39.57
2018-11-07T07:46:39.779Z,39.07
2018-11-07T07:48:43.189Z,41.07
2018-11-07T07:50:46.396Z,37.70
2018-11-07T07:52:49.882Z,44.23
2018-11-07T07:54:53.284Z,37.60
2018-11-07T07:56:56.672Z,41.30
2018-11-07T07:59:00.638Z,44.30
2018-11-07T08:01:03.857Z,43.60
2018-11-07T08:03:07.129Z,38.93
2018-11-07T08:05:10.436Z,40.33
2018-11-07T08:07:13.651Z,38.10
2018-11-07T08:09:17.442Z,37.60
2018-11-07T08:11:20.700Z,41.37
2018-11-07T08:13:23.980Z,33.60
2018-11-07T08:15:27.373Z,39.50
2018-11-07T08:17:30.596Z,39.67
2018-11-07T08:19:34.122Z,36.97
2018-11-07T08:21:37.325Z,34.70
2018-11-07T08:23:40.697Z,36.73
2018-11-07T08:25:43.903Z,34.60
2018-11-07T08:27:47.128Z,33.83
2018-11-07T08:29:50.737Z,33.10
2018-11-07T08:31:53.969Z,34.60
2018-11-07T08:33:58.284Z,36.03
2018-11-07T08:36:01.882Z,31.70
2018-11-07T08:38:05.455Z,30.83
2018-11-07T08:40:12.163Z,37.40
2018-11-07T08:42:16.124Z,40.27
2018-11-07T08:44:19.578Z,30.70
2018-11-07T08:46:23.106Z,35.00
2018-11-07T08:48:26.412Z,31.50
2018-11-07T08:50:29.661Z,30.57
2018-11-07T08:52:32.875Z,28.83
2018-11-07T08:54:36.367Z,31.70
2018-11-07T08:56:39.655Z,32.03
2018-11-07T08:58:42.849Z,26.10
2018-11-07T09:00:46.242Z,32.87
2018-11-07T09:02:49.580Z,34.67
2018-11-07T09:04:53.008Z,36.40
2018-11-07T09:06:56.192Z,33.17
2018-11-07T09:08:59.488Z,30.07
2018-11-07T09:11:02.686Z,36.27
2018-11-07T09:13:05.882Z,35.63
2018-11-07T09:15:13.399Z,35.27
2018-11-07T09:17:16.932Z,38.27
2018-11-07T09:19:20.164Z,36.93
2018-11-07T09:21:23.510Z,23.73
2018-11-07T09:23:26.738Z,32.80
2018-11-07T09:25:29.956Z,36.03
2018-11-07T09:27:33.256Z,38.60
2018-11-07T09:29:36.426Z,33.03
2018-11-07T09:31:39.658Z,37.73
2018-11-07T09:33:42.860Z,38.30
2018-11-07T09:35:47.060Z,38.40
2018-11-07T09:37:50.568Z,36.27
2018-11-07T09:39:53.816Z,39.90
2018-11-07T09:41:57.024Z,38.77
2018-11-07T09:44:00.250Z,41.90
2018-11-07T09:46:03.860Z,38.17
2018-11-07T09:48:07.184Z,36.70
2018-11-07T09:50:11.649Z,42.30
2018-11-07T09:52:14.944Z,42.17
2018-11-07T09:54:18.236Z,46.87
2018-11-07T09:56:22.326Z,39.43
2018-11-07T09:58:25.528Z,37.80
2018-11-07T10:00:28.809Z,36.40
2018-11-07T10:02:32.248Z,39.00
2018-11-07T10:04:35.618Z,41.93
2018-11-07T10:06:38.943Z,38.03
2018-11-07T10:08:42.302Z,35.10
2018-11-07T10:10:45.537Z,38.97
2018-11-07T10:12:49.062Z,38.07
2018-11-07T10:14:52.824Z,38.60
2018-11-07T10:16:56.364Z,40.67
2018-11-07T10:18:59.560Z,46.20
2018-11-07T10:21:02.927Z,40.87
2018-11-07T10:23:06.144Z,34.60
2018-11-07T10:25:10.306Z,43.10
2018-11-07T10:27:14.058Z,38.40
2018-11-07T10:29:17.843Z,32.33
2018-11-07T10:31:21.204Z,31.63
2018-11-07T10:33:24.437Z,32.67
2018-11-07T10:35:28.177Z,29.57
2018-11-07T10:37:32.793Z,32.33
2018-11-07T10:39:35.011Z,35.53
2018-11-07T10:41:38.545Z,29.17
2018-11-07T10:43:42.115Z,32.30
2018-11-07T10:45:45.879Z,30.17
2018-11-07T10:47:50.316Z,31.20
2018-11-07T10:49:53.558Z,33.20
2018-11-07T10:51:56.789Z,42.50
2018-11-07T10:54:00.238Z,34.73
2018-11-07T10:56:04.017Z,32.33
2018-11-07T10:58:07.240Z,34.03
2018-11-07T11:00:18.452Z,35.03
2018-11-07T11:02:27.733Z,30.87
2018-11-07T11:04:30.959Z,30.70
2018-11-07T11:06:34.169Z,30.43
2018-11-07T11:08:37.488Z,35.50
2018-11-07T11:10:40.714Z,31.93
2018-11-07T11:12:44.826Z,29.53
2018-11-07T11:14:48.358Z,40.13
2018-11-07T11:16:51.625Z,47.23
2018-11-07T11:18:55.005Z,31.83
2018-11-07T11:20:58.655Z,26.70
2018-11-07T11:23:01.955Z,26.20
2018-11-07T11:25:05.346Z,21.07
2018-11-07T11:27:08.951Z,23.00
2018-11-07T11:29:12.273Z,23.80
2018-11-07T11:31:15.565Z,26.73
2018-11-07T11:33:18.769Z,18.40
2018-11-07T11:35:22.172Z,16.73
2018-11-07T11:37:25.627Z,18.23
2018-11-07T11:39:28.862Z,16.87
2018-11-07T11:41:32.097Z,20.33
2018-11-07T11:43:35.345Z,18.27
2018-11-07T11:45:38.904Z,19.97
2018-11-07T11:47:43.096Z,17.73
2018-11-07T11:49:46.682Z,17.77
2018-11-07T11:51:50.026Z,16.10
2018-11-07T11:53:53.281Z,14.63
2018-11-07T11:55:56.512Z,14.33
2018-11-07T11:57:59.769Z,13.30
2018-11-07T12:00:03.306Z,20.17
2018-11-07T12:02:06.496Z,14.37
2018-11-07T12:04:09.979Z,14.90
2018-11-07T12:06:13.261Z,17.03
2018-11-07T12:08:16.585Z,19.40
2018-11-07T12:10:22.809Z,17.33
2018-11-07T12:12:26.067Z,14.87
2018-11-07T12:14:29.305Z,15.63
2018-11-07T12:16:32.577Z,15.33
2018-11-07T12:18:35.849Z,19.97
2018-11-07T12:20:39.255Z,17.17
2018-11-07T12:22:42.649Z,16.87
2018-11-07T12:24:45.848Z,16.33
2018-11-07T12:26:49.119Z,12.83
2018-11-07T12:28:52.486Z,15.30
2018-11-07T12:30:55.685Z,21.03
2018-11-07T12:32:58.960Z,12.17
2018-11-07T12:35:03.081Z,12.70
2018-11-07T12:37:06.375Z,14.13
2018-11-07T12:39:09.922Z,13.33
2018-11-07T12:41:13.609Z,13.67
2018-11-07T12:43:16.889Z,15.27
2018-11-07T12:45:20.116Z,13.50
2018-11-07T12:47:23.901Z,15.50
2018-11-07T12:49:27.497Z,13.77
2018-11-07T12:51:31.102Z,14.53
2018-11-07T12:53:34.375Z,17.63
2018-11-07T12:55:37.637Z,17.83
2018-11-07T12:57:41.006Z,13.77
2018-11-07T12:59:44.372Z,16.07
2018-11-07T13:01:47.557Z,15.50
2018-11-07T13:03:50.815Z,13.30
2018-11-07T13:05:54.042Z,13.03
2018-11-07T13:07:58.044Z,12.43
2018-11-07T13:10:01.481Z,15.00
2018-11-07T13:12:06.529Z,10.87
2018-11-07T13:14:10.160Z,11.17
2018-11-07T13:16:13.842Z,11.97
2018-11-07T13:18:17.131Z,15.27
2018-11-07T13:20:21.771Z,16.10
2018-11-07T13:22:25.198Z,11.00
2018-11-07T13:24:28.469Z,16.70
2018-11-07T13:26:32.066Z,13.97
2018-11-07T13:28:35.328Z,10.23
2018-11-07T13:30:38.825Z,11.33
2018-11-07T13:32:42.815Z,10.80
2018-11-07T13:34:46.036Z,11.43
2018-11-07T13:36:49.617Z,15.60
2018-11-07T13:38:53.530Z,12.57
2018-11-07T13:40:56.596Z,11.37
2018-11-07T13:42:59.924Z,10.70
2018-11-07T13:45:03.563Z,10.60
2018-11-07T13:47:07.364Z,9.80
2018-11-07T13:49:10.595Z,10.63
2018-11-07T13:51:13.796Z,11.57
2018-11-07T13:53:17.069Z,9.90
2018-11-07T13:55:20.786Z,11.60
2018-11-07T13:57:24.038Z,9.53
2018-11-07T13:59:27.332Z,9.60
2018-11-07T14:01:30.785Z,8.30
2018-11-07T14:03:34.050Z,8.90
2018-11-07T14:05:37.737Z,9.30
2018-11-07T14:07:40.893Z,11.20
2018-11-07T14:09:44.332Z,10.37
2018-11-07T14:11:47.896Z,12.80
2018-11-07T14:13:51.254Z,7.90
2018-11-07T14:15:55.064Z,6.30
2018-11-07T14:18:05.590Z,6.23
2018-11-07T14:20:09.200Z,6.70
2018-11-07T14:22:12.444Z,8.83
2018-11-07T14:24:15.689Z,7.63
2018-11-07T14:26:19.025Z,5.87
2018-11-07T14:28:22.506Z,7.97
2018-11-07T14:30:25.868Z,4.80
2018-11-07T14:32:29.961Z,6.00
2018-11-07T14:34:33.164Z,13.77
2018-11-07T14:36:36.385Z,9.53
2018-11-07T14:38:39.693Z,5.80
2018-11-07T14:40:43.008Z,6.87
2018-11-07T14:42:46.322Z,10.73
2018-11-07T14:44:49.549Z,8.30
2018-11-07T14:46:53.024Z,8.13
2018-11-07T14:48:56.433Z,7.67
2018-11-07T14:50:59.678Z,6.80
2018-11-07T14:53:02.921Z,6.03
2018-11-07T14:55:07.144Z,6.93
2018-11-07T14:57:10.384Z,7.53
2018-11-07T14:59:14.088Z,6.27
2018-11-07T15:01:17.321Z,10.17
2018-11-07T15:03:20.864Z,7.10
2018-11-07T15:05:24.314Z,8.20
2018-11-07T15:07:27.661Z,9.33
2018-11-07T15:09:30.864Z,8.20
2018-11-07T15:11:34.295Z,10.30
2018-11-07T15:13:37.743Z,7.97
2018-11-07T15:15:40.933Z,8.20
2018-11-07T15:17:44.499Z,8.60
2018-11-07T15:19:47.772Z,11.93
2018-11-07T15:21:51.049Z,8.47
2018-11-07T15:23:54.290Z,9.60
2018-11-07T15:25:57.541Z,11.80
2018-11-07T15:28:00.780Z,9.47
2018-11-07T15:30:04.149Z,11.70
2018-11-07T15:32:07.972Z,8.70
2018-11-07T15:34:11.195Z,9.53
2018-11-07T15:36:14.899Z,14.00
2018-11-07T15:38:18.553Z,12.47
2018-11-07T15:40:22.140Z,12.20
2018-11-07T15:42:25.520Z,14.93
2018-11-07T15:44:28.810Z,10.80
2018-11-07T15:46:32.036Z,11.07
2018-11-07T15:48:35.386Z,14.30
2018-11-07T15:50:43.997Z,11.87
2018-11-07T15:52:47.952Z,11.53
2018-11-07T15:54:51.335Z,9.50
2018-11-07T15:56:54.683Z,9.73
2018-11-07T15:58:57.911Z,12.17
2018-11-07T16:01:01.184Z,11.77
2018-11-07T16:03:04.472Z,10.70
2018-11-07T16:05:08.230Z,12.70
2018-11-07T16:07:11.444Z,11.90
2018-11-07T16:09:14.744Z,15.40
2018-11-07T16:11:18.156Z,15.60
2018-11-07T16:13:21.500Z,13.27
2018-11-07T16:15:24.921Z,14.77
2018-11-07T16:17:28.352Z,9.33
2018-11-07T16:19:31.633Z,13.10
2018-11-07T16:21:34.896Z,17.60
2018-11-07T16:23:38.126Z,11.20
2018-11-07T16:25:41.320Z,11.30
2018-11-07T16:27:44.969Z,13.03
2018-11-07T16:29:48.250Z,13.80
2018-11-07T16:31:51.455Z,12.93
2018-11-07T16:33:54.729Z,10.97
2018-11-07T16:35:57.977Z,19.53
2018-11-07T16:38:02.962Z,20.07
2018-11-07T16:40:08.513Z,12.30
2018-11-07T16:42:11.734Z,13.70
2018-11-07T16:44:15.014Z,11.83
2018-11-07T16:46:18.656Z,14.23
2018-11-07T16:48:22.169Z,18.40
2018-11-07T16:50:25.526Z,13.73
2018-11-07T16:52:28.858Z,13.60
2018-11-07T16:54:32.257Z,11.53
2018-11-07T16:56:35.599Z,14.70
2018-11-07T16:58:38.907Z,21.80
2018-11-07T17:00:43.062Z,14.17
2018-11-07T17:02:46.676Z,16.93
2018-11-07T17:04:50.029Z,17.43
2018-11-07T17:06:53.517Z,12.17
2018-11-07T17:08:57.033Z,21.90
2018-11-07T17:11:00.316Z,15.67
2018-11-07T17:13:03.733Z,17.20
2018-11-07T17:15:07.392Z,16.13
2018-11-07T17:17:10.587Z,11.03
2018-11-07T17:19:13.912Z,13.80
2018-11-07T17:21:17.176Z,15.47
2018-11-07T17:23:21.174Z,14.53
2018-11-07T17:25:24.413Z,17.13
2018-11-07T17:27:27.677Z,14.60
2018-11-07T17:29:30.990Z,34.63
2018-11-07T17:31:34.880Z,36.90
2018-11-07T17:33:38.404Z,17.20
2018-11-07T17:35:41.681Z,16.93
2018-11-07T17:37:45.656Z,22.70
2018-11-07T17:39:49.122Z,18.17
2018-11-07T17:41:52.375Z,14.27
2018-11-07T17:43:55.659Z,15.50
2018-11-07T17:45:59.246Z,17.57
2018-11-07T17:48:02.680Z,16.83
2018-11-07T17:50:07.023Z,19.47
2018-11-07T17:52:10.231Z,19.20
2018-11-07T17:54:13.483Z,20.87
2018-11-07T17:56:16.810Z,18.50
2018-11-07T17:58:20.142Z,19.20
2018-11-07T18:00:28.795Z,20.40
2018-11-07T18:02:32.688Z,18.50
2018-11-07T18:04:35.932Z,14.77
2018-11-07T18:06:39.404Z,15.80
2018-11-07T18:08:43.001Z,14.10
2018-11-07T18:10:46.285Z,14.80
2018-11-07T18:12:50.006Z,15.53
2018-11-07T18:14:53.207Z,17.60
2018-11-07T18:16:56.421Z,17.43
2018-11-07T18:19:00.120Z,15.20
2018-11-07T18:21:03.479Z,22.90
2018-11-07T18:23:07.060Z,18.40
2018-11-07T18:25:11.588Z,18.30
2018-11-07T18:27:14.839Z,20.13
2018-11-07T18:29:18.380Z,20.83
2018-11-07T18:31:21.983Z,20.53
2018-11-07T18:33:25.364Z,16.87
2018-11-07T18:35:28.781Z,18.47
2018-11-07T18:37:32.172Z,20.33
2018-11-07T18:39:35.400Z,19.37
2018-11-07T18:41:38.881Z,47.13
2018-11-07T18:43:42.242Z,24.20
2018-11-07T18:45:45.453Z,21.80
2018-11-07T18:47:48.740Z,21.20
2018-11-07T18:49:52.032Z,18.67
2018-11-07T18:51:55.433Z,15.97
2018-11-07T18:53:59.586Z,20.97
2018-11-07T18:56:02.839Z,20.00
2018-11-07T18:58:07.014Z,17.27
2018-11-07T19:00:12.288Z,19.77
2018-11-07T19:02:15.660Z,17.17
2018-11-07T19:04:19.152Z,15.27
2018-11-07T19:06:23.110Z,24.67
2018-11-07T19:08:26.626Z,21.27
2018-11-07T19:10:29.805Z,20.30
2018-11-07T19:12:33.104Z,14.90
2018-11-07T19:14:36.526Z,18.07
2018-11-07T19:16:39.780Z,23.80
2018-11-07T19:18:42.994Z,31.07
2018-11-07T19:20:46.362Z,24.00
2018-11-07T19:22:49.677Z,25.27
2018-11-07T19:24:53.152Z,20.40
2018-11-07T19:26:56.488Z,20.10
2018-11-07T19:28:59.923Z,18.37
2018-11-07T19:31:03.141Z,16.30
2018-11-07T19:33:06.755Z,17.57
2018-11-07T19:35:11.700Z,17.13
2018-11-07T19:37:14.945Z,17.80
2018-11-07T19:39:18.528Z,16.80
2018-11-07T19:41:21.881Z,18.10
2018-11-07T19:43:25.108Z,27.47
2018-11-07T19:45:28.349Z,22.60
2018-11-07T19:47:31.884Z,19.50
2018-11-07T19:49:35.359Z,20.60
2018-11-07T19:51:38.879Z,22.00
2018-11-07T19:53:42.079Z,18.83
2018-11-07T19:55:45.620Z,19.07
2018-11-07T19:57:51.728Z,15.57
2018-11-07T19:59:55.309Z,20.20
2018-11-07T20:02:05.188Z,17.30
2018-11-07T20:04:08.649Z,22.80
2018-11-07T20:06:11.892Z,18.90
2018-11-07T20:08:15.628Z,47.37
2018-11-07T20:10:20.294Z,19.30
2018-11-07T20:12:23.684Z,18.40
2018-11-07T20:14:27.488Z,23.67
2018-11-07T20:16:30.831Z,20.23
2018-11-07T20:18:34.738Z,19.17
2018-11-07T20:20:38.004Z,26.80
2018-11-07T20:22:41.324Z,21.77
2018-11-07T20:24:44.768Z,21.73
2018-11-07T20:26:47.991Z,22.10
2018-11-07T20:28:51.387Z,20.13
2018-11-07T20:30:54.753Z,16.13
2018-11-07T20:32:57.986Z,18.03
2018-11-07T20:35:01.218Z,17.80
2018-11-07T20:37:04.426Z,16.40
2018-11-07T20:39:09.513Z,22.20
2018-11-07T20:41:12.801Z,18.87
2018-11-07T20:43:16.137Z,20.23
2018-11-07T20:45:19.855Z,18.63
2018-11-07T20:47:23.058Z,18.63
2018-11-07T20:49:26.353Z,17.03
2018-11-07T20:51:29.857Z,16.00
2018-11-07T20:53:33.144Z,17.00
2018-11-07T20:55:36.384Z,21.40
2018-11-07T20:57:39.816Z,18.23
2018-11-07T20:59:43.395Z,16.97
2018-11-07T21:01:46.692Z,18.57
2018-11-07T21:03:50.096Z,16.43
2018-11-07T21:05:53.415Z,21.20
2018-11-07T21:07:56.976Z,19.47
2018-11-07T21:10:00.276Z,15.10
2018-11-07T21:12:03.889Z,15.70
2018-11-07T21:14:07.236Z,22.87
2018-11-07T21:16:10.523Z,20.23
2018-11-07T21:18:13.731Z,16.17
2018-11-07T21:20:17.030Z,15.00
2018-11-07T21:22:20.225Z,14.30
2018-11-07T21:24:23.448Z,14.60
2018-11-07T21:26:27.076Z,11.73
2018-11-07T21:28:30.364Z,13.87
2018-11-07T21:30:33.569Z,13.30
2018-11-07T21:32:37.053Z,15.37
2018-11-07T21:34:40.671Z,16.63
2018-11-07T21:36:44.185Z,18.63
2018-11-07T21:38:47.777Z,14.57
2018-11-07T21:40:51.269Z,13.00
2018-11-07T21:42:54.757Z,12.27
2018-11-07T21:44:58.344Z,13.63
2018-11-07T21:47:01.554Z,12.97
2018-11-07T21:49:05.073Z,20.93
2018-11-07T21:51:08.741Z,12.53
2018-11-07T21:53:17.269Z,14.33
2018-11-07T21:55:20.499Z,19.47
2018-11-07T21:57:23.732Z,14.53
2018-11-07T21:59:27.045Z,13.07
2018-11-07T22:01:30.316Z,12.30
2018-11-07T22:03:33.534Z,12.87
2018-11-07T22:05:36.812Z,17.03
2018-11-07T22:07:40.151Z,13.23
2018-11-07T22:09:43.572Z,14.13
2018-11-07T22:11:47.585Z,15.57
2018-11-07T22:13:50.842Z,12.97
2018-11-07T22:15:54.077Z,13.40
2018-11-07T22:17:57.388Z,12.93
2018-11-07T22:20:00.911Z,15.00
2018-11-07T22:22:05.176Z,13.37
2018-11-07T22:24:08.484Z,18.70
2018-11-07T22:26:12.082Z,19.23
2018-11-07T22:28:16.633Z,11.50
2018-11-07T22:30:20.156Z,12.90
2018-11-07T22:32:23.445Z,11.07
2018-11-07T22:34:26.649Z,14.27
2018-11-07T22:36:30.353Z,11.43
2018-11-07T22:38:33.649Z,14.10
2018-11-07T22:40:36.852Z,16.80
2018-11-07T22:42:40.208Z,13.93
2018-11-07T22:44:43.428Z,14.40
2018-11-07T22:46:46.648Z,14.20
2018-11-07T22:48:50.184Z,13.27
2018-11-07T22:50:53.420Z,12.60
2018-11-07T22:52:56.580Z,14.13
2018-11-07T22:54:59.804Z,20.90
2018-11-07T22:57:02.997Z,16.33
2018-11-07T22:59:06.538Z,12.40
2018-11-07T23:01:15.234Z,14.70
2018-11-07T23:03:18.824Z,18.63
2018-11-07T23:05:22.413Z,15.20
2018-11-07T23:07:25.845Z,14.53
2018-11-07T23:09:29.086Z,12.33
2018-11-07T23:11:32.319Z,13.07
2018-11-07T23:13:35.550Z,16.33
2018-11-07T23:15:44.298Z,15.30
2018-11-07T23:17:47.567Z,15.40
2018-11-07T23:19:50.834Z,18.00
2018-11-07T23:21:54.105Z,12.60
2018-11-07T23:23:57.342Z,18.83
2018-11-07T23:26:00.712Z,20.50
2018-11-07T23:28:04.257Z,17.00
2018-11-07T23:30:08.420Z,27.50
2018-11-07T23:32:11.612Z,21.17
2018-11-07T23:34:14.840Z,38.93
2018-11-07T23:36:18.142Z,33.67
2018-11-07T23:38:21.602Z,27.37
2018-11-07T23:40:24.832Z,21.67
2018-11-07T23:42:28.091Z,31.07
2018-11-07T23:44:31.284Z,17.70
2018-11-07T23:46:34.465Z,18.93
2018-11-07T23:48:37.724Z,15.53
2018-11-07T23:50:40.944Z,17.07
2018-11-07T23:52:47.764Z,15.67
2018-11-07T23:54:51.228Z,24.77
2018-11-07T23:56:54.902Z,18.53
2018-11-07T23:58:58.160Z,21.47
